createdAt,value
2019-05-14T00:00:32.091Z,6.32
2019-05-14T00:03:13.637Z,6.24
2019-05-14T00:05:55.641Z,5.95
2019-05-14T00:08:45.346Z,6.20
2019-05-14T00:11:27.830Z,6.12
2019-05-14T00:14:17.564Z,5.83
2019-05-14T00:17:01.684Z,5.89
2019-05-14T00:20:05.894Z,5.94
2019-05-14T00:22:36.117Z,5.92
2019-05-14T00:25:26.420Z,5.88
2019-05-14T00:28:09.007Z,5.86
2019-05-14T00:30:58.959Z,5.92
2019-05-14T00:33:42.076Z,5.87
2019-05-14T00:36:31.992Z,5.97
2019-05-14T00:39:16.225Z,5.90
2019-05-14T00:42:06.050Z,5.90
2019-05-14T00:44:57.777Z,6.01
2019-05-14T00:50:24.279Z,5.73
2019-05-14T00:52:54.894Z,5.97
2019-05-14T00:55:44.570Z,5.95
2019-05-14T00:58:27.184Z,5.80
2019-05-14T01:01:16.960Z,5.70
2019-05-14T01:04:25.759Z,5.43
2019-05-14T01:07:15.602Z,5.51
2019-05-14T01:10:05.906Z,5.46
2019-05-14T01:12:36.604Z,5.39
2019-05-14T01:15:26.300Z,5.42
2019-05-14T01:18:08.464Z,5.33
2019-05-14T01:20:58.247Z,5.34
2019-05-14T01:23:47.992Z,5.29
2019-05-14T01:26:37.788Z,5.28
2019-05-14T01:29:27.733Z,5.33
2019-05-14T01:32:17.536Z,5.43
2019-05-14T01:35:07.509Z,5.44
2019-05-14T01:37:57.282Z,5.43
2019-05-14T01:43:42.258Z,5.49
2019-05-14T01:46:32.042Z,5.52
2019-05-14T01:49:14.439Z,5.34
2019-05-14T01:52:04.126Z,5.34
2019-05-14T01:54:53.844Z,5.47
2019-05-14T02:00:44.684Z,5.28
2019-05-14T02:03:34.418Z,5.33
2019-05-14T02:06:21.271Z,5.39
2019-05-14T02:09:11.673Z,5.14
2019-05-14T02:11:53.511Z,5.17
2019-05-14T02:15:02.097Z,5.44
2019-05-14T02:17:32.712Z,5.46
2019-05-14T02:20:22.431Z,5.44
2019-05-14T02:23:04.633Z,5.51
2019-05-14T02:25:54.359Z,5.49
2019-05-14T02:28:38.619Z,5.52
2019-05-14T02:31:29.247Z,5.55
2019-05-14T02:34:12.746Z,5.44
2019-05-14T02:37:02.460Z,5.43
2019-05-14T02:39:44.344Z,5.34
2019-05-14T02:42:34.077Z,5.35
2019-05-14T02:45:19.509Z,5.40
2019-05-14T02:48:09.598Z,5.30
2019-05-14T02:50:52.021Z,5.21
2019-05-14T02:53:41.731Z,5.32
2019-05-14T02:56:23.721Z,5.34
2019-05-14T03:01:59.377Z,5.43
2019-05-14T03:04:50.044Z,5.46
2019-05-14T03:07:33.568Z,5.44
2019-05-14T03:10:23.294Z,5.20
2019-05-14T03:13:13.024Z,5.20
2019-05-14T03:16:20.957Z,5.14
2019-05-14T03:18:49.935Z,5.21
2019-05-14T03:21:39.519Z,5.23
2019-05-14T03:24:23.001Z,5.17
2019-05-14T03:27:12.714Z,4.99
2019-05-14T03:29:58.474Z,5.13
2019-05-14T03:32:52.076Z,5.06
2019-05-14T03:35:41.326Z,5.04
2019-05-14T03:38:22.960Z,5.04
2019-05-14T03:41:05.673Z,5.14
2019-05-14T03:43:55.380Z,5.13
2019-05-14T03:46:53.907Z,5.16
2019-05-14T03:49:29.064Z,4.99
2019-05-14T03:52:19.986Z,5.19
2019-05-14T03:55:04.739Z,5.25
2019-05-14T03:57:35.733Z,5.32
2019-05-14T04:01:19.932Z,5.43
2019-05-14T04:04:01.544Z,5.33
2019-05-14T04:06:51.666Z,5.25
2019-05-14T04:12:55.376Z,5.26
2019-05-14T04:18:59.941Z,5.71
2019-05-14T04:21:51.035Z,5.83
2019-05-14T04:24:41.628Z,5.97
2019-05-14T04:27:25.600Z,5.97
2019-05-14T04:30:20.614Z,6.18
2019-05-14T04:33:00.926Z,6.10
2019-05-14T04:35:50.776Z,6.22
2019-05-14T04:38:41.207Z,6.28
2019-05-14T04:41:24.923Z,6.49
2019-05-14T04:44:14.615Z,7.24
2019-05-14T04:46:59.947Z,8.99
2019-05-14T04:52:33.676Z,12.74
2019-05-14T04:55:25.719Z,14.02
2019-05-14T04:58:15.490Z,14.34
2019-05-14T05:01:05.286Z,13.74
2019-05-14T05:03:55.072Z,13.48
2019-05-14T05:06:44.847Z,14.80
2019-05-14T05:12:09.842Z,15.97
2019-05-14T05:15:00.140Z,16.91
2019-05-14T05:17:51.824Z,17.85
2019-05-14T05:20:58.198Z,17.68
2019-05-14T05:23:39.968Z,18.20
2019-05-14T05:26:29.711Z,17.12
2019-05-14T05:29:12.679Z,17.79
2019-05-14T05:32:02.987Z,18.88
2019-05-14T05:34:48.138Z,19.56
2019-05-14T05:37:38.456Z,19.41
2019-05-14T05:40:21.575Z,19.06
2019-05-14T05:43:11.340Z,17.65
2019-05-14T05:45:54.049Z,16.40
2019-05-14T05:48:43.791Z,16.63
2019-05-14T05:51:25.915Z,16.34
2019-05-14T05:54:15.681Z,17.17
2019-05-14T05:56:58.591Z,18.27
2019-05-14T05:59:48.720Z,18.12
2019-05-14T06:02:32.658Z,16.70
2019-05-14T06:08:23.639Z,15.38
2019-05-14T06:11:13.371Z,15.05
2019-05-14T06:13:55.633Z,14.16
2019-05-14T06:16:45.359Z,12.45
2019-05-14T06:19:28.979Z,11.59
2019-05-14T06:22:19.110Z,10.38
2019-05-14T06:25:02.922Z,10.00
2019-05-14T06:27:45.751Z,9.10
2019-05-14T06:33:51.093Z,8.91
2019-05-14T06:36:40.771Z,8.79
2019-05-14T06:39:23.731Z,8.74
2019-05-14T06:42:13.559Z,8.71
2019-05-14T06:45:03.362Z,8.72
2019-05-14T06:47:53.133Z,8.37
2019-05-14T06:50:42.845Z,8.69
2019-05-14T06:53:28.770Z,8.67
2019-05-14T06:56:21.425Z,8.92
2019-05-14T06:59:09.373Z,8.93
2019-05-14T07:01:53.351Z,9.00
2019-05-14T07:04:35.539Z,8.89
2019-05-14T07:07:25.348Z,9.29
2019-05-14T07:10:15.686Z,9.06
2019-05-14T07:13:05.382Z,9.23
2019-05-14T07:15:55.123Z,9.44
2019-05-14T07:18:49.330Z,9.39
2019-05-14T07:21:38.374Z,9.58
2019-05-14T07:24:20.769Z,9.40
2019-05-14T07:27:10.510Z,9.64
2019-05-14T07:29:52.614Z,9.68
2019-05-14T07:32:42.334Z,9.70
2019-05-14T07:35:32.051Z,9.65
2019-05-14T07:38:14.325Z,9.76
2019-05-14T07:41:04.072Z,10.03
2019-05-14T07:43:53.848Z,10.42
2019-05-14T07:46:43.622Z,10.51
2019-05-14T07:49:33.416Z,10.50
2019-05-14T07:52:23.165Z,10.41
2019-05-14T07:55:13.075Z,10.61
2019-05-14T07:57:55.166Z,10.30
2019-05-14T08:03:49.092Z,10.48
2019-05-14T08:06:32.638Z,10.66
2019-05-14T08:09:22.587Z,10.45
2019-05-14T08:12:12.880Z,10.51
2019-05-14T08:15:15.290Z,10.60
2019-05-14T08:17:48.248Z,10.76
2019-05-14T08:20:38.204Z,10.75
2019-05-14T08:23:22.290Z,11.19
2019-05-14T08:26:11.984Z,11.23
2019-05-14T08:28:53.895Z,11.20
2019-05-14T08:31:43.653Z,11.49
2019-05-14T08:34:33.428Z,11.43
2019-05-14T08:37:23.204Z,11.57
2019-05-14T08:43:18.702Z,11.88
2019-05-14T08:46:01.369Z,11.93
2019-05-14T08:48:51.187Z,12.02
2019-05-14T08:51:41.004Z,11.79
2019-05-14T08:54:30.792Z,11.67
2019-05-14T08:57:20.554Z,11.88
2019-05-14T09:00:13.809Z,11.59
2019-05-14T09:02:55.299Z,11.78
2019-05-14T09:06:04.177Z,11.48
2019-05-14T09:08:53.965Z,11.59
2019-05-14T09:11:45.832Z,12.11
2019-05-14T09:14:28.247Z,11.92
2019-05-14T09:17:30.874Z,11.94
2019-05-14T09:20:06.951Z,12.19
2019-05-14T09:22:33.946Z,12.37
2019-05-14T09:25:23.661Z,12.22
2019-05-14T09:28:08.923Z,11.78
2019-05-14T09:30:59.601Z,11.58
2019-05-14T09:33:45.793Z,11.85
2019-05-14T09:36:28.916Z,12.17
2019-05-14T09:39:19.001Z,12.03
2019-05-14T09:42:08.726Z,12.01
2019-05-14T09:44:59.622Z,11.97
2019-05-14T09:47:42.733Z,12.18
2019-05-14T09:50:32.506Z,12.93
2019-05-14T09:53:22.206Z,12.51
2019-05-14T09:56:04.240Z,11.89
2019-05-14T09:58:54.037Z,11.81
2019-05-14T10:01:43.823Z,12.13
2019-05-14T10:04:33.609Z,11.81
2019-05-14T10:07:42.513Z,11.92
2019-05-14T10:10:32.254Z,11.44
2019-05-14T10:13:21.977Z,12.04
2019-05-14T10:16:11.746Z,12.25
2019-05-14T10:19:01.501Z,11.83
2019-05-14T10:22:10.377Z,11.31
2019-05-14T10:25:00.091Z,11.40
2019-05-14T10:27:49.936Z,11.76
2019-05-14T10:30:52.276Z,12.16
2019-05-14T10:33:35.838Z,12.11
2019-05-14T10:36:25.552Z,12.30
2019-05-14T10:39:09.368Z,12.19
2019-05-14T10:41:59.430Z,12.18
2019-05-14T10:44:42.336Z,11.94
2019-05-14T10:47:32.974Z,11.51
2019-05-14T10:50:18.230Z,12.37
2019-05-14T10:53:09.093Z,12.33
2019-05-14T10:55:51.574Z,11.92
2019-05-14T10:58:41.293Z,12.53
2019-05-14T11:01:23.304Z,12.86
2019-05-14T11:04:13.015Z,12.60
2019-05-14T11:06:55.332Z,12.17
2019-05-14T11:09:45.062Z,12.26
2019-05-14T11:12:29.652Z,12.48
2019-05-14T11:15:19.298Z,11.72
2019-05-14T11:18:03.383Z,12.51
2019-05-14T11:20:53.134Z,12.81
2019-05-14T11:23:38.397Z,12.16
2019-05-14T11:26:29.547Z,12.45
2019-05-14T11:29:11.006Z,12.51
2019-05-14T11:32:00.802Z,12.81
2019-05-14T11:37:33.130Z,13.23
2019-05-14T11:40:22.938Z,12.70
2019-05-14T11:43:05.132Z,12.60
2019-05-14T11:45:54.878Z,12.70
2019-05-14T11:48:39.284Z,13.04
2019-05-14T11:51:54.728Z,13.49
2019-05-14T11:54:14.487Z,13.57
2019-05-14T11:57:19.137Z,12.69
2019-05-14T12:00:00.700Z,12.30
2019-05-14T12:02:50.442Z,12.36
2019-05-14T12:05:32.429Z,12.40
2019-05-14T12:08:22.176Z,12.61
2019-05-14T12:11:04.158Z,12.71
2019-05-14T12:13:53.908Z,12.57
2019-05-14T12:16:40.155Z,13.01
2019-05-14T12:19:28.929Z,12.50
2019-05-14T12:22:12.420Z,12.56
2019-05-14T12:25:02.239Z,12.83
2019-05-14T12:27:44.159Z,12.84
2019-05-14T12:30:33.888Z,12.99
2019-05-14T12:33:19.370Z,12.52
2019-05-14T12:36:10.176Z,12.40
2019-05-14T12:38:52.233Z,12.23
2019-05-14T12:41:41.940Z,12.08
2019-05-14T12:44:24.924Z,12.07
2019-05-14T12:47:14.665Z,12.14
2019-05-14T12:49:58.674Z,12.24
2019-05-14T12:52:48.742Z,12.02
2019-05-14T12:55:32.905Z,11.99
2019-05-14T12:58:22.634Z,11.88
2019-05-14T13:01:04.678Z,11.73
2019-05-14T13:03:54.519Z,12.11
2019-05-14T13:06:39.880Z,12.35
2019-05-14T13:09:28.122Z,13.10
2019-05-14T13:12:11.266Z,13.50
2019-05-14T13:15:01.738Z,13.26
2019-05-14T13:17:51.569Z,13.17
2019-05-14T13:20:41.370Z,12.74
2019-05-14T13:23:31.119Z,12.67
2019-05-14T13:26:21.005Z,13.27
2019-05-14T13:29:11.062Z,13.47
2019-05-14T13:32:00.806Z,13.32
2019-05-14T13:34:50.614Z,13.30
2019-05-14T13:37:40.374Z,12.60
2019-05-14T13:40:30.159Z,12.60
2019-05-14T13:43:19.964Z,12.41
2019-05-14T13:46:11.372Z,12.50
2019-05-14T13:48:54.118Z,12.95
2019-05-14T13:51:44.089Z,13.11
2019-05-14T13:54:33.821Z,13.50
2019-05-14T13:57:23.578Z,13.38
2019-05-14T14:00:13.575Z,13.43
2019-05-14T14:03:03.542Z,13.46
2019-05-14T14:05:53.293Z,13.01
2019-05-14T14:08:43.103Z,12.64
2019-05-14T14:11:32.823Z,12.34
2019-05-14T14:14:22.575Z,12.26
2019-05-14T14:17:12.297Z,12.02
2019-05-14T14:19:54.529Z,11.98
2019-05-14T14:22:44.288Z,11.98
2019-05-14T14:25:26.214Z,12.69
2019-05-14T14:28:15.928Z,12.95
2019-05-14T14:30:58.811Z,12.77
2019-05-14T14:33:48.961Z,12.92
2019-05-14T14:36:32.315Z,13.00
2019-05-14T14:39:22.042Z,13.01
2019-05-14T14:42:04.637Z,12.99
2019-05-14T14:44:54.312Z,13.18
2019-05-14T14:47:39.083Z,13.28
2019-05-14T14:50:29.026Z,13.33
2019-05-14T14:53:12.163Z,13.20
2019-05-14T14:56:01.933Z,13.15
2019-05-14T14:58:43.886Z,13.09
2019-05-14T15:01:33.618Z,12.99
2019-05-14T15:04:19.466Z,13.24
2019-05-14T15:07:09.955Z,13.47
2019-05-14T15:09:53.778Z,13.29
2019-05-14T15:12:43.570Z,13.46
2019-05-14T15:15:26.134Z,13.38
2019-05-14T15:18:18.605Z,12.87
2019-05-14T15:21:00.372Z,12.76
2019-05-14T15:24:05.928Z,12.44
2019-05-14T15:26:34.575Z,12.24
2019-05-14T15:29:24.296Z,12.67
2019-05-14T15:32:09.189Z,12.54
2019-05-14T15:34:59.299Z,13.05
2019-05-14T15:37:43.189Z,13.35
2019-05-14T15:40:32.985Z,13.48
2019-05-14T15:43:14.884Z,13.50
2019-05-14T15:46:04.658Z,13.20
2019-05-14T15:48:48.721Z,12.80
2019-05-14T15:51:39.730Z,12.87
2019-05-14T15:54:36.120Z,13.01
2019-05-14T15:57:13.505Z,12.68
2019-05-14T16:00:00.866Z,12.31
2019-05-14T16:02:50.372Z,12.10
2019-05-14T16:05:32.229Z,12.15
2019-05-14T16:08:22.911Z,12.09
2019-05-14T16:11:10.947Z,12.38
2019-05-14T16:13:57.975Z,12.58
2019-05-14T16:16:40.368Z,12.33
2019-05-14T16:19:30.159Z,12.76
2019-05-14T16:22:20.006Z,12.81
2019-05-14T16:25:10.215Z,12.56
2019-05-14T16:28:00.029Z,12.49
2019-05-14T16:30:50.006Z,12.42
2019-05-14T16:33:40.741Z,12.53
2019-05-14T16:36:24.169Z,12.45
2019-05-14T16:42:20.624Z,12.83
2019-05-14T16:45:02.151Z,12.35
2019-05-14T16:47:51.931Z,11.94
2019-05-14T16:50:41.727Z,11.93
2019-05-14T16:53:31.521Z,11.74
2019-05-14T16:56:21.298Z,11.59
2019-05-14T16:59:11.152Z,11.59
2019-05-14T17:02:00.918Z,11.61
2019-05-14T17:04:50.713Z,11.71
2019-05-14T17:07:52.843Z,11.61
2019-05-14T17:10:35.678Z,11.65
2019-05-14T17:13:25.404Z,11.90
2019-05-14T17:16:11.322Z,12.26
2019-05-14T17:19:01.086Z,12.32
2019-05-14T17:21:43.387Z,12.28
2019-05-14T17:24:14.085Z,12.26
2019-05-14T17:26:44.734Z,12.59
2019-05-14T17:29:34.432Z,12.37
2019-05-14T17:32:18.723Z,12.32
2019-05-14T17:35:08.772Z,12.23
2019-05-14T17:37:58.879Z,12.34
2019-05-14T17:40:42.371Z,12.20
2019-05-14T17:43:32.224Z,12.19
2019-05-14T17:46:22.039Z,12.07
2019-05-14T17:49:11.867Z,12.20
2019-05-14T17:52:01.688Z,12.10
2019-05-14T17:54:51.537Z,11.94
2019-05-14T17:57:48.241Z,11.94
2019-05-14T18:00:25.564Z,12.10
2019-05-14T18:03:29.086Z,12.28
2019-05-14T18:06:12.036Z,12.51
2019-05-14T18:09:01.828Z,12.60
2019-05-14T18:11:44.669Z,12.64
2019-05-14T18:14:34.444Z,12.36
2019-05-14T18:17:18.814Z,12.06
2019-05-14T18:23:04.174Z,12.09
2019-05-14T18:26:05.067Z,11.90
2019-05-14T18:28:40.276Z,11.81
2019-05-14T18:31:22.561Z,11.62
2019-05-14T18:34:12.384Z,11.54
2019-05-14T18:37:02.126Z,11.55
2019-05-14T18:39:48.164Z,11.42
2019-05-14T18:42:29.883Z,11.40
2019-05-14T18:45:19.661Z,11.32
2019-05-14T18:48:02.095Z,11.18
2019-05-14T18:50:51.934Z,11.13
2019-05-14T18:53:41.795Z,10.98
2019-05-14T18:56:31.623Z,10.94
2019-05-14T18:59:21.693Z,10.59
2019-05-14T19:02:03.793Z,10.45
2019-05-14T19:07:59.274Z,10.45
2019-05-14T19:10:42.397Z,10.36
2019-05-14T19:13:32.181Z,10.20
2019-05-14T19:16:21.959Z,10.05
2019-05-14T19:19:11.803Z,10.02
2019-05-14T19:22:01.603Z,9.97
2019-05-14T19:24:51.370Z,10.05
2019-05-14T19:27:41.073Z,10.00
2019-05-14T19:30:23.384Z,10.04
2019-05-14T19:33:13.210Z,10.02
2019-05-14T19:36:02.931Z,9.99
2019-05-14T19:38:52.661Z,9.85
2019-05-14T19:41:34.646Z,9.81
2019-05-14T19:44:24.498Z,9.72
2019-05-14T19:47:14.333Z,9.61
2019-05-14T19:50:04.215Z,9.45
2019-05-14T19:52:53.953Z,9.48
2019-05-14T19:55:43.671Z,9.68
2019-05-14T19:58:33.439Z,9.56
2019-05-14T20:01:15.795Z,9.47
2019-05-14T20:07:08.801Z,9.41
2019-05-14T20:09:54.505Z,9.35
2019-05-14T20:12:38.883Z,9.42
2019-05-14T20:15:28.011Z,9.38
2019-05-14T20:18:10.469Z,9.37
2019-05-14T20:24:02.785Z,9.13
2019-05-14T20:27:04.778Z,9.02
2019-05-14T20:29:38.005Z,8.92
2019-05-14T20:32:27.790Z,8.74
2019-05-14T20:35:11.423Z,8.81
2019-05-14T20:38:01.166Z,8.58
2019-05-14T20:40:44.748Z,8.43
2019-05-14T20:43:34.485Z,8.37
2019-05-14T20:46:18.600Z,8.39
2019-05-14T20:49:08.940Z,8.37
2019-05-14T20:51:52.157Z,8.38
2019-05-14T20:54:41.904Z,8.14
2019-05-14T20:57:33.602Z,8.29
2019-05-14T21:00:18.228Z,8.16
2019-05-14T21:03:08.903Z,8.16
2019-05-14T21:05:52.314Z,8.21
2019-05-14T21:08:42.060Z,8.41
2019-05-14T21:11:24.102Z,8.11
2019-05-14T21:14:13.842Z,7.99
2019-05-14T21:16:56.468Z,8.12
2019-05-14T21:19:46.164Z,7.93
2019-05-14T21:22:29.164Z,7.88
2019-05-14T21:25:18.997Z,8.07
2019-05-14T21:28:01.401Z,7.90
2019-05-14T21:30:51.158Z,7.84
2019-05-14T21:33:33.151Z,7.62
2019-05-14T21:36:22.962Z,7.55
2019-05-14T21:39:08.103Z,7.68
2019-05-14T21:41:58.563Z,7.57
2019-05-14T21:44:45.686Z,7.44
2019-05-14T21:47:35.394Z,7.46
2019-05-14T21:50:25.144Z,7.42
2019-05-14T21:53:09.260Z,7.46
2019-05-14T21:55:58.970Z,7.40
2019-05-14T21:58:48.692Z,7.26
2019-05-14T22:01:39.543Z,7.32
2019-05-14T22:04:23.582Z,7.34
2019-05-14T22:07:13.360Z,7.26
2019-05-14T22:15:19.733Z,7.13
2019-05-14T22:18:16.923Z,7.04
2019-05-14T22:20:57.926Z,7.06
2019-05-14T22:23:48.294Z,6.85
2019-05-14T22:26:33.636Z,7.03
2019-05-14T22:29:23.390Z,6.98
2019-05-14T22:32:08.092Z,6.98
2019-05-14T22:34:58.587Z,6.95
2019-05-14T22:37:42.219Z,6.88
2019-05-14T22:43:38.342Z,6.91
2019-05-14T22:46:28.522Z,6.92
2019-05-14T22:49:11.302Z,6.88
2019-05-14T22:55:05.442Z,6.72
2019-05-14T22:57:55.205Z,6.55
2019-05-14T23:00:46.695Z,6.50
2019-05-14T23:03:53.863Z,6.59
2019-05-14T23:06:38.220Z,6.53
2019-05-14T23:09:28.149Z,6.54
2019-05-14T23:12:14.869Z,6.47
2019-05-14T23:15:24.563Z,6.47
2019-05-14T23:18:08.571Z,6.38
2019-05-14T23:20:59.263Z,6.36
2019-05-14T23:23:42.525Z,6.55
2019-05-14T23:26:32.275Z,6.48
2019-05-14T23:29:15.209Z,6.42
2019-05-14T23:32:04.974Z,6.40
2019-05-14T23:34:50.699Z,6.38
2019-05-14T23:37:41.149Z,6.32
2019-05-14T23:40:24.805Z,6.33
2019-05-14T23:43:14.641Z,6.27
2019-05-14T23:45:58.396Z,6.20
2019-05-14T23:48:48.655Z,6.08
2019-05-14T23:54:41.430Z,5.95
2019-05-14T23:57:24.265Z,6.04
